sensor_id;sensor_type;location;lat;lon;timestamp;noise_LAeq;noise_LA_min;noise_LA_max;noise_LA01;noise_LA95
72686;Laerm;61365;52.162;4.500;2023-05-10T00:00:48;46.52;42.98;48.67;;
72686;Laerm;61365;52.162;4.500;2023-05-10T00:03:14;46.94;42.33;49.00;;
72686;Laerm;61365;52.162;4.500;2023-05-10T00:05:40;46.93;44.67;48.75;;
72686;Laerm;61365;52.162;4.500;2023-05-10T00:08:06;46.72;44.03;48.97;;
72686;Laerm;61365;52.162;4.500;2023-05-10T00:10:32;46.83;42.45;49.05;;
72686;Laerm;61365;52.162;4.500;2023-05-10T00:12:58;47.04;42.68;48.93;;
72686;Laerm;61365;52.162;4.500;2023-05-10T00:15:24;47.02;43.82;49.27;;
72686;Laerm;61365;52.162;4.500;2023-05-10T00:17:51;47.04;44.64;49.80;;
72686;Laerm;61365;52.162;4.500;2023-05-10T00:20:17;47.05;43.58;49.02;;
72686;Laerm;61365;52.162;4.500;2023-05-10T00:22:46;46.96;42.78;48.80;;
72686;Laerm;61365;52.162;4.500;2023-05-10T00:25:12;46.86;44.72;48.68;;
72686;Laerm;61365;52.162;4.500;2023-05-10T00:27:38;46.71;44.39;48.71;;
72686;Laerm;61365;52.162;4.500;2023-05-10T00:30:05;46.75;44.30;48.95;;
72686;Laerm;61365;52.162;4.500;2023-05-10T00:32:32;46.72;41.74;48.57;;
72686;Laerm;61365;52.162;4.500;2023-05-10T00:34:58;46.83;43.77;48.56;;
72686;Laerm;61365;52.162;4.500;2023-05-10T00:37:24;46.89;44.55;48.73;;
72686;Laerm;61365;52.162;4.500;2023-05-10T00:39:50;46.84;44.60;48.76;;
72686;Laerm;61365;52.162;4.500;2023-05-10T00:42:16;46.81;42.51;48.56;;
72686;Laerm;61365;52.162;4.500;2023-05-10T00:44:42;46.81;42.54;51.29;;
72686;Laerm;61365;52.162;4.500;2023-05-10T00:47:09;46.74;44.28;48.39;;
72686;Laerm;61365;52.162;4.500;2023-05-10T00:49:36;46.73;43.94;52.48;;
72686;Laerm;61365;52.162;4.500;2023-05-10T00:52:02;46.67;44.36;48.46;;
72686;Laerm;61365;52.162;4.500;2023-05-10T00:54:29;46.59;43.96;48.58;;
72686;Laerm;61365;52.162;4.500;2023-05-10T00:56:56;46.43;44.14;48.44;;
72686;Laerm;61365;52.162;4.500;2023-05-10T00:59:23;46.63;41.62;48.59;;
72686;Laerm;61365;52.162;4.500;2023-05-10T01:01:49;46.69;41.08;48.44;;
72686;Laerm;61365;52.162;4.500;2023-05-10T01:04:17;46.73;43.75;48.68;;
72686;Laerm;61365;52.162;4.500;2023-05-10T01:06:43;46.75;44.36;49.32;;
72686;Laerm;61365;52.162;4.500;2023-05-10T01:09:09;46.63;43.04;48.72;;
72686;Laerm;61365;52.162;4.500;2023-05-10T01:11:38;46.64;43.55;48.54;;
72686;Laerm;61365;52.162;4.500;2023-05-10T01:14:05;46.74;42.04;49.02;;
72686;Laerm;61365;52.162;4.500;2023-05-10T01:16:36;46.64;44.25;48.49;;
72686;Laerm;61365;52.162;4.500;2023-05-10T01:19:06;46.59;44.27;48.26;;
72686;Laerm;61365;52.162;4.500;2023-05-10T01:33:19;46.77;42.53;48.55;;
72686;Laerm;61365;52.162;4.500;2023-05-10T01:35:51;46.79;44.15;48.70;;
72686;Laerm;61365;52.162;4.500;2023-05-10T01:38:32;46.85;43.37;48.56;;
72686;Laerm;61365;52.162;4.500;2023-05-10T01:41:18;46.88;44.62;48.92;;
72686;Laerm;61365;52.162;4.500;2023-05-10T01:44:09;46.85;41.96;48.71;;
72686;Laerm;61365;52.162;4.500;2023-05-10T01:46:40;46.94;43.79;48.72;;
72686;Laerm;61365;52.162;4.500;2023-05-10T01:49:17;46.96;42.43;48.74;;
72686;Laerm;61365;52.162;4.500;2023-05-10T01:51:49;46.80;38.29;48.82;;
72686;Laerm;61365;52.162;4.500;2023-05-10T01:54:19;46.70;41.54;48.52;;
72686;Laerm;61365;52.162;4.500;2023-05-10T01:56:52;46.75;43.98;51.19;;
72686;Laerm;61365;52.162;4.500;2023-05-10T01:59:22;46.90;41.38;49.09;;
72686;Laerm;61365;52.162;4.500;2023-05-10T02:01:51;46.89;44.06;48.76;;
72686;Laerm;61365;52.162;4.500;2023-05-10T02:04:19;47.00;43.66;48.78;;
72686;Laerm;61365;52.162;4.500;2023-05-10T02:06:48;47.00;44.56;49.27;;
72686;Laerm;61365;52.162;4.500;2023-05-10T02:09:16;46.96;41.83;49.03;;
72686;Laerm;61365;52.162;4.500;2023-05-10T02:11:43;46.92;43.46;48.78;;
72686;Laerm;61365;52.162;4.500;2023-05-10T02:14:11;46.99;42.44;48.87;;
72686;Laerm;61365;52.162;4.500;2023-05-10T02:16:38;47.01;43.24;49.10;;
72686;Laerm;61365;52.162;4.500;2023-05-10T02:19:07;47.08;44.55;48.87;;
72686;Laerm;61365;52.162;4.500;2023-05-10T02:21:35;47.00;44.40;48.74;;
72686;Laerm;61365;52.162;4.500;2023-05-10T02:24:02;46.98;44.78;48.94;;
72686;Laerm;61365;52.162;4.500;2023-05-10T02:26:31;46.91;44.66;48.75;;
72686;Laerm;61365;52.162;4.500;2023-05-10T02:29:02;46.81;41.65;48.75;;
72686;Laerm;61365;52.162;4.500;2023-05-10T02:31:31;46.86;42.85;48.83;;
72686;Laerm;61365;52.162;4.500;2023-05-10T02:33:59;46.91;41.68;48.83;;
72686;Laerm;61365;52.162;4.500;2023-05-10T02:36:27;46.82;42.66;48.69;;
72686;Laerm;61365;52.162;4.500;2023-05-10T02:38:55;46.80;42.46;48.52;;
72686;Laerm;61365;52.162;4.500;2023-05-10T02:41:22;46.87;44.20;48.86;;
72686;Laerm;61365;52.162;4.500;2023-05-10T02:43:50;46.89;42.73;49.91;;
72686;Laerm;61365;52.162;4.500;2023-05-10T02:46:18;46.63;41.53;48.83;;
72686;Laerm;61365;52.162;4.500;2023-05-10T02:48:44;46.76;39.73;48.64;;
72686;Laerm;61365;52.162;4.500;2023-05-10T02:51:12;46.74;43.65;48.66;;
72686;Laerm;61365;52.162;4.500;2023-05-10T02:53:43;46.79;43.06;48.76;;
72686;Laerm;61365;52.162;4.500;2023-05-10T02:56:24;46.77;44.35;48.67;;
72686;Laerm;61365;52.162;4.500;2023-05-10T02:58:52;46.81;39.55;48.82;;
72686;Laerm;61365;52.162;4.500;2023-05-10T03:01:18;46.75;41.41;48.65;;
72686;Laerm;61365;52.162;4.500;2023-05-10T03:03:44;46.89;39.27;48.97;;
72686;Laerm;61365;52.162;4.500;2023-05-10T03:06:10;46.84;44.62;48.93;;
72686;Laerm;61365;52.162;4.500;2023-05-10T03:08:37;46.89;40.45;48.92;;
72686;Laerm;61365;52.162;4.500;2023-05-10T03:13:53;46.97;42.75;48.90;;
72686;Laerm;61365;52.162;4.500;2023-05-10T03:16:29;47.09;44.08;49.09;;
72686;Laerm;61365;52.162;4.500;2023-05-10T03:19:24;47.21;44.69;49.05;;
72686;Laerm;61365;52.162;4.500;2023-05-10T03:21:53;47.13;44.30;49.01;;
72686;Laerm;61365;52.162;4.500;2023-05-10T03:24:27;47.24;43.95;49.04;;
72686;Laerm;61365;52.162;4.500;2023-05-10T03:26:55;47.20;44.96;49.11;;
72686;Laerm;61365;52.162;4.500;2023-05-10T03:29:22;47.26;41.76;49.60;;
72686;Laerm;61365;52.162;4.500;2023-05-10T03:31:51;47.24;41.99;50.18;;
72686;Laerm;61365;52.162;4.500;2023-05-10T03:34:23;47.23;44.64;49.11;;
72686;Laerm;61365;52.162;4.500;2023-05-10T03:36:49;46.90;43.86;48.68;;
72686;Laerm;61365;52.162;4.500;2023-05-10T03:39:16;47.02;41.48;49.31;;
72686;Laerm;61365;52.162;4.500;2023-05-10T03:41:42;47.00;44.73;48.88;;
72686;Laerm;61365;52.162;4.500;2023-05-10T03:44:08;47.04;43.07;49.06;;
72686;Laerm;61365;52.162;4.500;2023-05-10T03:46:34;47.10;43.52;49.27;;
72686;Laerm;61365;52.162;4.500;2023-05-10T03:49:00;46.99;41.37;49.29;;
72686;Laerm;61365;52.162;4.500;2023-05-10T03:51:26;47.12;44.40;49.14;;
72686;Laerm;61365;52.162;4.500;2023-05-10T03:53:54;47.40;42.27;49.19;;
72686;Laerm;61365;52.162;4.500;2023-05-10T03:56:21;47.29;43.07;49.11;;
72686;Laerm;61365;52.162;4.500;2023-05-10T03:58:47;47.33;42.07;51.12;;
72686;Laerm;61365;52.162;4.500;2023-05-10T04:01:13;47.26;45.07;49.53;;
72686;Laerm;61365;52.162;4.500;2023-05-10T04:03:39;47.23;44.70;49.07;;
72686;Laerm;61365;52.162;4.500;2023-05-10T04:06:06;47.22;45.07;52.43;;
72686;Laerm;61365;52.162;4.500;2023-05-10T04:08:33;47.18;44.99;49.21;;
72686;Laerm;61365;52.162;4.500;2023-05-10T04:11:10;47.27;44.72;49.15;;
72686;Laerm;61365;52.162;4.500;2023-05-10T04:13:37;47.50;44.32;49.42;;
72686;Laerm;61365;52.162;4.500;2023-05-10T04:16:04;47.52;45.25;49.47;;
72686;Laerm;61365;52.162;4.500;2023-05-10T04:18:30;47.50;43.79;49.63;;
72686;Laerm;61365;52.162;4.500;2023-05-10T04:20:57;47.70;45.63;49.80;;
72686;Laerm;61365;52.162;4.500;2023-05-10T04:23:23;47.69;42.28;49.75;;
72686;Laerm;61365;52.162;4.500;2023-05-10T04:25:49;47.79;42.57;50.69;;
72686;Laerm;61365;52.162;4.500;2023-05-10T04:28:15;47.74;42.69;49.51;;
72686;Laerm;61365;52.162;4.500;2023-05-10T04:30:41;47.78;41.69;49.81;;
72686;Laerm;61365;52.162;4.500;2023-05-10T04:33:08;47.65;43.71;49.59;;
72686;Laerm;61365;52.162;4.500;2023-05-10T04:35:34;47.75;42.79;49.85;;
72686;Laerm;61365;52.162;4.500;2023-05-10T04:38:00;47.66;43.85;49.51;;
72686;Laerm;61365;52.162;4.500;2023-05-10T04:40:27;47.76;41.81;49.82;;
72686;Laerm;61365;52.162;4.500;2023-05-10T04:42:53;47.72;42.25;50.04;;
72686;Laerm;61365;52.162;4.500;2023-05-10T04:45:19;47.82;45.58;49.56;;
72686;Laerm;61365;52.162;4.500;2023-05-10T04:47:45;47.84;45.41;49.81;;
72686;Laerm;61365;52.162;4.500;2023-05-10T04:50:11;47.75;45.30;49.57;;
72686;Laerm;61365;52.162;4.500;2023-05-10T04:52:37;47.84;43.85;49.69;;
72686;Laerm;61365;52.162;4.500;2023-05-10T04:55:04;47.85;45.62;49.62;;
72686;Laerm;61365;52.162;4.500;2023-05-10T04:57:30;47.77;44.94;49.73;;
72686;Laerm;61365;52.162;4.500;2023-05-10T04:59:56;47.69;43.35;49.51;;
72686;Laerm;61365;52.162;4.500;2023-05-10T05:02:22;47.59;45.57;49.32;;
72686;Laerm;61365;52.162;4.500;2023-05-10T05:04:49;47.50;44.86;49.51;;
72686;Laerm;61365;52.162;4.500;2023-05-10T05:07:15;47.72;44.02;49.54;;
72686;Laerm;61365;52.162;4.500;2023-05-10T05:09:41;47.49;45.08;49.47;;
72686;Laerm;61365;52.162;4.500;2023-05-10T05:12:07;47.60;43.76;49.32;;
72686;Laerm;61365;52.162;4.500;2023-05-10T05:14:33;47.71;44.43;49.54;;
72686;Laerm;61365;52.162;4.500;2023-05-10T05:16:59;47.65;39.72;49.60;;
72686;Laerm;61365;52.162;4.500;2023-05-10T05:19:26;47.73;43.39;49.86;;
72686;Laerm;61365;52.162;4.500;2023-05-10T05:21:52;47.59;41.44;49.71;;
72686;Laerm;61365;52.162;4.500;2023-05-10T05:24:18;47.40;43.15;49.69;;
72686;Laerm;61365;52.162;4.500;2023-05-10T05:26:44;47.55;45.20;49.42;;
72686;Laerm;61365;52.162;4.500;2023-05-10T05:29:10;47.51;42.89;52.76;;
72686;Laerm;61365;52.162;4.500;2023-05-10T05:31:36;47.57;43.18;49.41;;
72686;Laerm;61365;52.162;4.500;2023-05-10T05:34:02;47.60;44.97;49.66;;
72686;Laerm;61365;52.162;4.500;2023-05-10T05:36:28;47.66;45.42;49.79;;
72686;Laerm;61365;52.162;4.500;2023-05-10T05:38:55;47.63;45.23;49.56;;
72686;Laerm;61365;52.162;4.500;2023-05-10T05:41:21;47.61;45.41;49.48;;
72686;Laerm;61365;52.162;4.500;2023-05-10T05:43:47;47.57;44.11;49.41;;
72686;Laerm;61365;52.162;4.500;2023-05-10T05:46:13;47.68;44.93;49.68;;
72686;Laerm;61365;52.162;4.500;2023-05-10T05:48:39;47.67;45.40;49.89;;
72686;Laerm;61365;52.162;4.500;2023-05-10T05:51:05;47.65;44.40;49.56;;
72686;Laerm;61365;52.162;4.500;2023-05-10T05:53:31;47.67;43.61;50.19;;
72686;Laerm;61365;52.162;4.500;2023-05-10T05:55:58;47.76;43.40;50.09;;
72686;Laerm;61365;52.162;4.500;2023-05-10T05:58:25;47.84;45.44;49.97;;
72686;Laerm;61365;52.162;4.500;2023-05-10T06:00:54;47.80;44.00;49.68;;
72686;Laerm;61365;52.162;4.500;2023-05-10T06:03:21;47.82;44.73;49.54;;
72686;Laerm;61365;52.162;4.500;2023-05-10T06:05:47;47.86;43.98;49.81;;
72686;Laerm;61365;52.162;4.500;2023-05-10T06:08:14;47.85;45.13;49.73;;
72686;Laerm;61365;52.162;4.500;2023-05-10T06:10:40;47.82;42.89;50.00;;
72686;Laerm;61365;52.162;4.500;2023-05-10T06:13:06;47.94;45.08;49.65;;
72686;Laerm;61365;52.162;4.500;2023-05-10T06:15:32;47.94;45.50;49.65;;
72686;Laerm;61365;52.162;4.500;2023-05-10T06:17:59;48.09;45.91;49.83;;
72686;Laerm;61365;52.162;4.500;2023-05-10T06:20:25;48.23;45.64;50.11;;
72686;Laerm;61365;52.162;4.500;2023-05-10T06:22:51;48.12;45.01;50.27;;
72686;Laerm;61365;52.162;4.500;2023-05-10T06:25:17;47.81;45.76;49.69;;
72686;Laerm;61365;52.162;4.500;2023-05-10T06:27:44;48.17;45.94;50.25;;
72686;Laerm;61365;52.162;4.500;2023-05-10T06:30:10;48.25;45.90;49.88;;
72686;Laerm;61365;52.162;4.500;2023-05-10T06:32:39;48.18;45.66;50.28;;
72686;Laerm;61365;52.162;4.500;2023-05-10T06:35:05;48.14;45.08;50.25;;
72686;Laerm;61365;52.162;4.500;2023-05-10T06:37:31;48.07;45.88;49.91;;
72686;Laerm;61365;52.162;4.500;2023-05-10T06:39:58;47.94;45.18;49.69;;
72686;Laerm;61365;52.162;4.500;2023-05-10T06:42:24;47.98;45.70;49.91;;
72686;Laerm;61365;52.162;4.500;2023-05-10T06:44:51;48.09;45.89;49.99;;
72686;Laerm;61365;52.162;4.500;2023-05-10T06:47:17;48.14;42.51;49.98;;
72686;Laerm;61365;52.162;4.500;2023-05-10T06:49:43;48.18;43.53;50.18;;
72686;Laerm;61365;52.162;4.500;2023-05-10T06:52:09;48.08;45.68;50.15;;
72686;Laerm;61365;52.162;4.500;2023-05-10T06:54:36;48.25;45.96;50.09;;
72686;Laerm;61365;52.162;4.500;2023-05-10T06:57:02;48.28;46.13;50.30;;
72686;Laerm;61365;52.162;4.500;2023-05-10T06:59:29;48.34;45.93;50.25;;
72686;Laerm;61365;52.162;4.500;2023-05-10T07:01:55;48.37;44.09;50.21;;
72686;Laerm;61365;52.162;4.500;2023-05-10T07:04:21;48.48;46.17;50.21;;
72686;Laerm;61365;52.162;4.500;2023-05-10T07:06:47;48.42;45.36;50.43;;
72686;Laerm;61365;52.162;4.500;2023-05-10T07:09:13;48.49;46.46;50.26;;
72686;Laerm;61365;52.162;4.500;2023-05-10T07:11:39;48.70;46.33;50.77;;
72686;Laerm;61365;52.162;4.500;2023-05-10T07:14:05;48.50;43.96;50.51;;
72686;Laerm;61365;52.162;4.500;2023-05-10T07:16:32;48.47;46.04;50.17;;
72686;Laerm;61365;52.162;4.500;2023-05-10T07:18:58;48.56;46.68;50.41;;
72686;Laerm;61365;52.162;4.500;2023-05-10T07:21:24;48.50;43.96;50.62;;
72686;Laerm;61365;52.162;4.500;2023-05-10T07:23:51;48.53;46.40;50.30;;
72686;Laerm;61365;52.162;4.500;2023-05-10T07:26:17;48.45;45.89;50.19;;
72686;Laerm;61365;52.162;4.500;2023-05-10T07:28:44;48.56;44.76;50.19;;
72686;Laerm;61365;52.162;4.500;2023-05-10T07:31:10;48.60;44.91;50.61;;
72686;Laerm;61365;52.162;4.500;2023-05-10T07:33:36;48.68;44.42;51.22;;
72686;Laerm;61365;52.162;4.500;2023-05-10T07:36:02;48.71;46.36;50.85;;
72686;Laerm;61365;52.162;4.500;2023-05-10T07:38:28;48.98;46.45;51.65;;
72686;Laerm;61365;52.162;4.500;2023-05-10T07:40:54;48.97;46.94;50.91;;
72686;Laerm;61365;52.162;4.500;2023-05-10T07:43:20;49.04;46.96;50.83;;
72686;Laerm;61365;52.162;4.500;2023-05-10T07:45:46;49.07;44.41;50.88;;
72686;Laerm;61365;52.162;4.500;2023-05-10T07:48:12;49.03;46.73;50.88;;
72686;Laerm;61365;52.162;4.500;2023-05-10T07:50:39;49.00;46.07;50.64;;
72686;Laerm;61365;52.162;4.500;2023-05-10T07:53:05;49.00;46.80;51.01;;
72686;Laerm;61365;52.162;4.500;2023-05-10T07:55:31;49.19;45.83;51.29;;
72686;Laerm;61365;52.162;4.500;2023-05-10T07:57:57;49.32;45.46;51.41;;
72686;Laerm;61365;52.162;4.500;2023-05-10T08:00:23;49.47;47.46;51.18;;
72686;Laerm;61365;52.162;4.500;2023-05-10T08:02:49;49.38;44.41;51.23;;
72686;Laerm;61365;52.162;4.500;2023-05-10T08:05:15;49.30;46.82;52.69;;
72686;Laerm;61365;52.162;4.500;2023-05-10T08:07:42;49.04;46.07;51.08;;
72686;Laerm;61365;52.162;4.500;2023-05-10T08:10:08;48.91;45.24;50.92;;
72686;Laerm;61365;52.162;4.500;2023-05-10T08:12:35;48.93;46.76;50.71;;
72686;Laerm;61365;52.162;4.500;2023-05-10T08:15:01;48.82;46.28;50.75;;
72686;Laerm;61365;52.162;4.500;2023-05-10T08:17:27;49.09;44.90;51.61;;
72686;Laerm;61365;52.162;4.500;2023-05-10T08:19:53;49.19;46.41;51.59;;
72686;Laerm;61365;52.162;4.500;2023-05-10T08:22:19;50.29;47.73;52.01;;
72686;Laerm;61365;52.162;4.500;2023-05-10T08:24:45;49.26;45.41;52.78;;
72686;Laerm;61365;52.162;4.500;2023-05-10T08:27:12;49.11;46.84;50.87;;
72686;Laerm;61365;52.162;4.500;2023-05-10T08:29:38;49.16;46.45;50.99;;
72686;Laerm;61365;52.162;4.500;2023-05-10T08:32:04;49.29;47.00;50.97;;
72686;Laerm;61365;52.162;4.500;2023-05-10T08:34:30;49.28;46.82;50.96;;
72686;Laerm;61365;52.162;4.500;2023-05-10T08:36:57;49.24;46.21;51.14;;
72686;Laerm;61365;52.162;4.500;2023-05-10T08:39:23;49.29;45.74;51.11;;
72686;Laerm;61365;52.162;4.500;2023-05-10T08:41:50;49.31;45.70;51.15;;
72686;Laerm;61365;52.162;4.500;2023-05-10T08:44:17;49.47;45.49;51.27;;
72686;Laerm;61365;52.162;4.500;2023-05-10T08:46:46;49.51;47.43;51.71;;
72686;Laerm;61365;52.162;4.500;2023-05-10T08:49:17;49.41;45.87;51.52;;
72686;Laerm;61365;52.162;4.500;2023-05-10T08:51:52;49.35;47.35;51.13;;
72686;Laerm;61365;52.162;4.500;2023-05-10T08:54:21;49.29;44.58;51.02;;
72686;Laerm;61365;52.162;4.500;2023-05-10T08:56:48;49.30;45.58;51.20;;
72686;Laerm;61365;52.162;4.500;2023-05-10T08:59:14;49.30;45.31;51.09;;
72686;Laerm;61365;52.162;4.500;2023-05-10T09:01:42;49.30;44.75;51.07;;
72686;Laerm;61365;52.162;4.500;2023-05-10T09:04:10;49.27;46.90;51.09;;
72686;Laerm;61365;52.162;4.500;2023-05-10T09:06:36;49.30;45.42;51.27;;
72686;Laerm;61365;52.162;4.500;2023-05-10T09:09:03;49.30;45.96;51.09;;
72686;Laerm;61365;52.162;4.500;2023-05-10T09:11:29;49.81;47.12;52.05;;
72686;Laerm;61365;52.162;4.500;2023-05-10T09:13:56;49.50;46.95;51.99;;
72686;Laerm;61365;52.162;4.500;2023-05-10T09:16:23;50.13;47.36;52.64;;
72686;Laerm;61365;52.162;4.500;2023-05-10T09:18:49;49.35;46.11;51.94;;
72686;Laerm;61365;52.162;4.500;2023-05-10T09:21:15;49.31;46.92;53.23;;
72686;Laerm;61365;52.162;4.500;2023-05-10T09:23:45;49.52;45.87;51.65;;
72686;Laerm;61365;52.162;4.500;2023-05-10T09:26:12;49.71;46.57;51.47;;
72686;Laerm;61365;52.162;4.500;2023-05-10T09:28:50;49.73;46.11;51.47;;
72686;Laerm;61365;52.162;4.500;2023-05-10T09:31:18;49.86;46.24;52.47;;
72686;Laerm;61365;52.162;4.500;2023-05-10T09:33:45;49.50;47.11;52.16;;
72686;Laerm;61365;52.162;4.500;2023-05-10T09:36:12;50.04;45.41;52.42;;
72686;Laerm;61365;52.162;4.500;2023-05-10T09:38:48;49.56;45.01;51.26;;
72686;Laerm;61365;52.162;4.500;2023-05-10T09:41:19;49.52;45.50;51.34;;
72686;Laerm;61365;52.162;4.500;2023-05-10T09:43:46;48.96;46.02;51.18;;
72686;Laerm;61365;52.162;4.500;2023-05-10T09:46:13;49.26;46.90;51.30;;
72686;Laerm;61365;52.162;4.500;2023-05-10T09:48:44;49.50;47.31;51.33;;
72686;Laerm;61365;52.162;4.500;2023-05-10T09:51:18;49.13;47.00;53.28;;
72686;Laerm;61365;52.162;4.500;2023-05-10T09:53:45;49.34;46.70;51.28;;
72686;Laerm;61365;52.162;4.500;2023-05-10T09:56:11;49.74;47.85;53.85;;
72686;Laerm;61365;52.162;4.500;2023-05-10T09:58:37;50.16;47.99;53.54;;
72686;Laerm;61365;52.162;4.500;2023-05-10T10:01:11;50.00;47.92;51.62;;
72686;Laerm;61365;52.162;4.500;2023-05-10T10:03:42;50.07;47.30;52.08;;
72686;Laerm;61365;52.162;4.500;2023-05-10T10:06:08;49.84;47.40;51.39;;
72686;Laerm;61365;52.162;4.500;2023-05-10T10:08:34;49.82;46.89;52.66;;
72686;Laerm;61365;52.162;4.500;2023-05-10T10:11:01;50.23;47.41;53.04;;
72686;Laerm;61365;52.162;4.500;2023-05-10T10:13:28;49.43;46.83;52.86;;
72686;Laerm;61365;52.162;4.500;2023-05-10T10:15:55;49.59;47.38;51.65;;
72686;Laerm;61365;52.162;4.500;2023-05-10T10:18:21;49.53;46.67;51.31;;
72686;Laerm;61365;52.162;4.500;2023-05-10T10:20:54;49.71;47.39;51.52;;
72686;Laerm;61365;52.162;4.500;2023-05-10T10:23:20;50.31;47.33;53.12;;
72686;Laerm;61365;52.162;4.500;2023-05-10T10:25:47;49.39;46.48;51.33;;
72686;Laerm;61365;52.162;4.500;2023-05-10T10:28:36;50.37;46.68;52.59;;
72686;Laerm;61365;52.162;4.500;2023-05-10T10:34:08;49.70;45.99;52.32;;
72686;Laerm;61365;52.162;4.500;2023-05-10T10:36:46;49.47;46.00;51.19;;
72686;Laerm;61365;52.162;4.500;2023-05-10T10:39:13;49.50;47.34;51.40;;
72686;Laerm;61365;52.162;4.500;2023-05-10T10:41:52;49.27;46.97;51.35;;
72686;Laerm;61365;52.162;4.500;2023-05-10T10:57:45;49.10;45.82;50.95;;
72686;Laerm;61365;52.162;4.500;2023-05-10T11:00:25;49.28;46.63;51.17;;
72686;Laerm;61365;52.162;4.500;2023-05-10T11:03:03;49.49;44.08;51.48;;
72686;Laerm;61365;52.162;4.500;2023-05-10T11:05:45;49.68;44.84;51.63;;
72686;Laerm;61365;52.162;4.500;2023-05-10T11:11:02;49.47;45.40;51.35;;
72686;Laerm;61365;52.162;4.500;2023-05-10T11:13:47;49.51;45.98;51.46;;
72686;Laerm;61365;52.162;4.500;2023-05-10T11:16:24;49.60;45.89;51.41;;
72686;Laerm;61365;52.162;4.500;2023-05-10T11:18:58;49.40;45.48;51.19;;
72686;Laerm;61365;52.162;4.500;2023-05-10T11:21:25;49.21;47.03;50.92;;
72686;Laerm;61365;52.162;4.500;2023-05-10T11:23:53;49.18;42.85;50.94;;
72686;Laerm;61365;52.162;4.500;2023-05-10T11:26:31;48.99;45.36;53.16;;
72686;Laerm;61365;52.162;4.500;2023-05-10T11:28:57;48.99;45.57;50.83;;
72686;Laerm;61365;52.162;4.500;2023-05-10T11:31:24;48.93;46.73;50.79;;
72686;Laerm;61365;52.162;4.500;2023-05-10T11:33:54;49.01;45.90;50.88;;
72686;Laerm;61365;52.162;4.500;2023-05-10T11:36:24;49.02;45.75;50.69;;
72686;Laerm;61365;52.162;4.500;2023-05-10T11:38:52;48.95;45.45;50.67;;
72686;Laerm;61365;52.162;4.500;2023-05-10T11:41:19;49.03;47.25;50.66;;
72686;Laerm;61365;52.162;4.500;2023-05-10T11:43:53;49.12;46.39;51.21;;
72686;Laerm;61365;52.162;4.500;2023-05-10T11:46:21;49.28;46.96;50.95;;
72686;Laerm;61365;52.162;4.500;2023-05-10T11:48:57;49.25;46.32;51.07;;
72686;Laerm;61365;52.162;4.500;2023-05-10T11:51:26;49.27;45.77;51.09;;
72686;Laerm;61365;52.162;4.500;2023-05-10T11:53:53;49.35;47.24;51.17;;
72686;Laerm;61365;52.162;4.500;2023-05-10T11:56:20;49.28;46.27;51.05;;
72686;Laerm;61365;52.162;4.500;2023-05-10T11:58:52;49.22;45.98;51.17;;
72686;Laerm;61365;52.162;4.500;2023-05-10T12:01:21;49.09;46.54;51.09;;
72686;Laerm;61365;52.162;4.500;2023-05-10T12:03:47;49.12;46.09;51.11;;
72686;Laerm;61365;52.162;4.500;2023-05-10T12:06:14;49.00;45.99;50.84;;
72686;Laerm;61365;52.162;4.500;2023-05-10T12:08:45;48.99;46.78;51.01;;
72686;Laerm;61365;52.162;4.500;2023-05-10T12:11:13;49.07;46.84;53.05;;
72686;Laerm;61365;52.162;4.500;2023-05-10T12:13:44;49.14;46.69;50.94;;
72686;Laerm;61365;52.162;4.500;2023-05-10T12:18:40;49.29;45.38;51.22;;
72686;Laerm;61365;52.162;4.500;2023-05-10T12:21:10;49.32;46.34;52.86;;
72686;Laerm;61365;52.162;4.500;2023-05-10T12:23:38;49.58;47.01;52.09;;
72686;Laerm;61365;52.162;4.500;2023-05-10T12:26:05;49.56;46.98;52.19;;
72686;Laerm;61365;52.162;4.500;2023-05-10T12:28:32;48.90;45.03;50.92;;
72686;Laerm;61365;52.162;4.500;2023-05-10T12:30:59;48.91;46.51;52.61;;
72686;Laerm;61365;52.162;4.500;2023-05-10T12:33:25;48.84;45.10;50.53;;
72686;Laerm;61365;52.162;4.500;2023-05-10T12:35:53;48.93;44.52;53.09;;
72686;Laerm;61365;52.162;4.500;2023-05-10T12:38:34;49.05;46.43;50.78;;
72686;Laerm;61365;52.162;4.500;2023-05-10T12:41:03;49.09;46.49;50.94;;
72686;Laerm;61365;52.162;4.500;2023-05-10T12:43:29;49.13;45.68;50.94;;
72686;Laerm;61365;52.162;4.500;2023-05-10T12:45:56;49.11;46.25;53.27;;
72686;Laerm;61365;52.162;4.500;2023-05-10T12:48:22;49.14;45.91;51.02;;
72686;Laerm;61365;52.162;4.500;2023-05-10T12:50:48;49.40;45.97;53.09;;
72686;Laerm;61365;52.162;4.500;2023-05-10T12:53:15;49.64;46.39;51.89;;
72686;Laerm;61365;52.162;4.500;2023-05-10T12:55:44;49.42;44.12;51.42;;
72686;Laerm;61365;52.162;4.500;2023-05-10T12:58:10;49.45;47.17;51.12;;
72686;Laerm;61365;52.162;4.500;2023-05-10T13:00:37;49.60;45.92;51.35;;
72686;Laerm;61365;52.162;4.500;2023-05-10T13:03:04;49.65;46.29;51.34;;
72686;Laerm;61365;52.162;4.500;2023-05-10T13:05:33;49.61;46.14;51.37;;
72686;Laerm;61365;52.162;4.500;2023-05-10T13:08:00;49.64;47.15;51.61;;
72686;Laerm;61365;52.162;4.500;2023-05-10T13:10:27;49.75;47.56;51.32;;
72686;Laerm;61365;52.162;4.500;2023-05-10T13:12:54;49.81;45.82;52.05;;
72686;Laerm;61365;52.162;4.500;2023-05-10T13:15:20;49.77;46.42;51.63;;
72686;Laerm;61365;52.162;4.500;2023-05-10T13:17:46;49.65;47.61;51.79;;
72686;Laerm;61365;52.162;4.500;2023-05-10T13:20:12;49.50;45.01;53.58;;
72686;Laerm;61365;52.162;4.500;2023-05-10T13:22:38;49.73;45.27;51.96;;
72686;Laerm;61365;52.162;4.500;2023-05-10T13:25:05;50.01;46.04;51.93;;
72686;Laerm;61365;52.162;4.500;2023-05-10T13:27:31;49.87;45.94;51.60;;
72686;Laerm;61365;52.162;4.500;2023-05-10T13:29:57;50.76;47.95;53.01;;
72686;Laerm;61365;52.162;4.500;2023-05-10T13:32:25;51.35;49.15;52.87;;
72686;Laerm;61365;52.162;4.500;2023-05-10T13:34:51;50.67;47.97;53.18;;
72686;Laerm;61365;52.162;4.500;2023-05-10T13:37:17;49.85;46.99;51.84;;
72686;Laerm;61365;52.162;4.500;2023-05-10T13:39:44;49.96;47.61;52.03;;
72686;Laerm;61365;52.162;4.500;2023-05-10T13:42:10;49.96;46.90;53.57;;
72686;Laerm;61365;52.162;4.500;2023-05-10T13:44:36;50.12;47.94;51.94;;
72686;Laerm;61365;52.162;4.500;2023-05-10T13:47:04;50.20;47.37;52.25;;
72686;Laerm;61365;52.162;4.500;2023-05-10T13:49:31;50.23;47.69;52.01;;
72686;Laerm;61365;52.162;4.500;2023-05-10T13:51:57;50.29;47.12;52.29;;
72686;Laerm;61365;52.162;4.500;2023-05-10T13:54:23;50.45;47.24;52.05;;
72686;Laerm;61365;52.162;4.500;2023-05-10T13:56:50;50.41;47.22;52.10;;
72686;Laerm;61365;52.162;4.500;2023-05-10T13:59:16;50.39;46.22;52.58;;
72686;Laerm;61365;52.162;4.500;2023-05-10T14:01:42;50.32;46.95;52.29;;
72686;Laerm;61365;52.162;4.500;2023-05-10T14:04:11;50.40;48.42;52.71;;
72686;Laerm;61365;52.162;4.500;2023-05-10T14:06:37;50.48;46.21;52.19;;
72686;Laerm;61365;52.162;4.500;2023-05-10T14:09:03;50.44;45.49;52.17;;
72686;Laerm;61365;52.162;4.500;2023-05-10T14:11:29;50.31;48.33;52.08;;
72686;Laerm;61365;52.162;4.500;2023-05-10T14:13:55;50.38;46.49;52.20;;
72686;Laerm;61365;52.162;4.500;2023-05-10T14:16:21;50.15;46.76;53.09;;
72686;Laerm;61365;52.162;4.500;2023-05-10T14:18:47;50.32;48.20;52.33;;
72686;Laerm;61365;52.162;4.500;2023-05-10T14:21:14;50.45;47.69;52.78;;
72686;Laerm;61365;52.162;4.500;2023-05-10T14:23:41;50.30;47.23;52.41;;